Thunder radar more information blitzortung!


Radar de pluja more information rain snow radar


Visita la nostra xarxa de llocs de meteo:

Template documentation
and downloads

And another site



No particular awareness of the weather is required.    There are no Weather-warnings

Pagina Historial Weather Underground text

Diari Resum January 18, 2016 Unitats:  Mètric    Imperial   Tant
« Previous Dia
SegĂźent Dia »
Diari Setmana Mensual Anual Personalitzada
  Maxima: Minima: Media:
Temperatura: -17.8 °C -14.3 °C -12.3 °C
Punt de rosada: -17.8 °C -19.7 °C -17.8 °C
Humitat: Humidity % 46 % 50 %
Wind Speed: 0 km/h 0 km/h 8.4 km/h
RĂ fegues de vent: 0 km/h - -
Vent:- - SSW
Pression baro: 0 hPa 34222.3 hPa -
Precipitacions: 0 mm    
Historical Graphs
 
 
Dades de taula per January 18, 2016
Temps Temperatura Punt de rosada Pression baro Vent Wind Speed RĂ fegues de vent Humitat Rainfall Rate (Hourly)
-17.8 °C -17.8 °C 0 hPa Calm     Humidity % 0 mm
11:09 -14.3 °C -19.7 °C 34428.8 hPa ENE 9 km/h 9 km/h 50 % 0 mm
11:19 -14.1 °C -19.5 °C 34428.8 hPa NNE 9.8 km/h 9.8 km/h 50 % 0 mm
11:34 -13.7 °C -19.1 °C 34428.8 hPa NNE 9 km/h 9 km/h 50 % 0 mm
11:39 -13.4 °C -18.8 °C 34395 hPa NNE 5.1 km/h 5.1 km/h 50 % 0 mm
11:44 -13.3 °C -18.8 °C 34395 hPa NNE 6.3 km/h 6.3 km/h 50 % 0 mm
11:49 -13.2 °C -18.7 °C 34395 hPa NNE 9 km/h 9 km/h 50 % 0 mm
11:54 -13 °C -18.5 °C 34395 hPa NNE 10.3 km/h 10.3 km/h 50 % 0 mm
11:59 -12.9 °C -18.4 °C 34395 hPa NNE 6.3 km/h 6.3 km/h 50 % 0 mm
12:04 -12.7 °C -18.4 °C 34395 hPa NE 9 km/h 9 km/h 49 % 0 mm
12:09 -12.6 °C -18.3 °C 34395 hPa ENE 11.1 km/h 11.1 km/h 49 % 0 mm
12:14 -12.7 °C -18.5 °C 34395 hPa East 9 km/h 9 km/h 48 % 0 mm
12:19 -12.7 °C -18.5 °C 34395 hPa NE 11.9 km/h 11.9 km/h 48 % 0 mm
12:24 -12.6 °C -18.4 °C 34395 hPa ENE 15 km/h 15 km/h 48 % 0 mm
12:34 -12.6 °C -18.6 °C 34395 hPa ENE 15 km/h 15 km/h 47 % 0 mm
12:44 -12.4 °C -18.4 °C 34395 hPa ENE 11.9 km/h 11.9 km/h 47 % 0 mm
12:49 -12.6 °C -18.6 °C 34395 hPa NE 15 km/h 15 km/h 47 % 0 mm
12:54 -12.7 °C -18.8 °C 34361.1 hPa ENE 15 km/h 15 km/h 46 % 0 mm
12:59 -12.7 °C -18.8 °C 34361.1 hPa ENE 11.9 km/h 11.9 km/h 46 % 0 mm
13:04 -12.6 °C -18.7 °C 34361.1 hPa NNE 7.6 km/h 7.6 km/h 46 % 0 mm
13:09 -12.4 °C -18.6 °C 34361.1 hPa NW 6 km/h 6 km/h 46 % 0 mm
13:14 -12.4 °C -18.6 °C 34361.1 hPa NNW 9 km/h 9 km/h 46 % 0 mm
13:19 -12.2 °C -18.2 °C 34361.1 hPa NE 6 km/h 6.3 km/h 47 % 0 mm
13:24 -12.2 °C -18.3 °C 34327.3 hPa NE 9 km/h 9 km/h 46 % 0 mm
13:29 -12.1 °C -18.3 °C 34327.3 hPa NNE 6 km/h 6 km/h 46 % 0 mm
13:34 -11.9 °C -18.1 °C 34327.3 hPa NE 8 km/h 8 km/h 46 % 0 mm
13:39 -11.9 °C -18.1 °C 34293.4 hPa South 6 km/h 6.3 km/h 46 % 0 mm
13:54 -11.8 °C -18 °C 34327.3 hPa SW 9.3 km/h 9.3 km/h 46 % 0 mm
13:59 -11.8 °C -18 °C 34327.3 hPa SW 9 km/h 9 km/h 46 % 0 mm
14:04 -11.8 °C -18 °C 34327.3 hPa SW 6.8 km/h   46 % 0 mm
14:09 -11.8 °C -18 °C 34327.3 hPa SSE 9 km/h 9 km/h 46 % 0 mm
14:14 -11.8 °C -18 °C 34327.3 hPa WSW 10.3 km/h 10.3 km/h 46 % 0 mm
14:19 -11.8 °C -18 °C 34327.3 hPa South 6 km/h   46 % 0 mm
14:24 -11.8 °C -18 °C 34293.4 hPa WSW 7.6 km/h 7.6 km/h 46 % 0 mm
14:29 -11.8 °C -18 °C 34293.4 hPa SW 3.7 km/h 3.7 km/h 46 % 0 mm
14:34 -11.8 °C -18 °C 34293.4 hPa SW 6.3 km/h 6.8 km/h 46 % 0 mm
14:39 -11.8 °C -18 °C 34327.3 hPa WSW 6 km/h 6 km/h 46 % 0 mm
14:44 -11.2 °C -17.4 °C 34327.3 hPa WSW 9 km/h 9 km/h 46 % 0 mm
14:49 -11.2 °C -17.4 °C 34327.3 hPa SW 15 km/h 15 km/h 46 % 0 mm
14:54 -11.2 °C -17.4 °C 34293.4 hPa NW 6 km/h 6 km/h 46 % 0 mm
14:59 -11.2 °C -17.4 °C 34293.4 hPa NW 3.1 km/h   46 % 0 mm
15:04 -11.2 °C -17.4 °C 34293.4 hPa NW 3.1 km/h   46 % 0 mm
15:09 -11.3 °C -17.6 °C 34256.2 hPa NNE 5.6 km/h 5.6 km/h 46 % 0 mm
15:14 -11.3 °C -17.6 °C 34256.2 hPa SW 6 km/h 6 km/h 46 % 0 mm
15:19 -11.3 °C -17.6 °C 34256.2 hPa NNE 6 km/h 6 km/h 46 % 0 mm
15:24 -11.2 °C -17.4 °C 34293.4 hPa NNW 3.7 km/h   46 % 0 mm
15:29 -11.2 °C -17.4 °C 34293.4 hPa WSW 9 km/h 9 km/h 46 % 0 mm
15:34 -11.1 °C -17.2 °C 34293.4 hPa West 9 km/h 9 km/h 47 % 0 mm
15:39 -11.1 °C -17.2 °C 34256.2 hPa WSW 9 km/h 9 km/h 47 % 0 mm
15:44 -11.1 °C -17.2 °C 34256.2 hPa WSW 15 km/h 15 km/h 47 % 0 mm
15:49 -11.1 °C -17.2 °C 34256.2 hPa WSW 9 km/h 9 km/h 47 % 0 mm
15:54 -11.1 °C -17.2 °C 34256.2 hPa West 15 km/h 15 km/h 47 % 0 mm
15:59 -11.1 °C -17.2 °C 34256.2 hPa West 11.9 km/h 11.9 km/h 47 % 0 mm
16:04 -11.1 °C -17.2 °C 34256.2 hPa West 11.9 km/h 11.9 km/h 47 % 0 mm
16:09 -11.1 °C -17 °C 34256.2 hPa WSW 9 km/h 9 km/h 48 % 0 mm
16:14 -11.1 °C -17 °C 34256.2 hPa WNW 15 km/h 15 km/h 48 % 0 mm
16:19 -11.1 °C -17 °C 34256.2 hPa WSW 9 km/h 9 km/h 48 % 0 mm
16:24 -10.7 °C -16.7 °C 34256.2 hPa WSW 15 km/h 15 km/h 48 % 0 mm
16:29 -10.7 °C -16.7 °C 34256.2 hPa WSW 14.5 km/h 14.5 km/h 48 % 0 mm
16:34 -11 °C -16.9 °C 34256.2 hPa NW 14 km/h 14 km/h 48 % 0 mm
16:39 -11.1 °C -17 °C 34222.3 hPa SW 9 km/h 9 km/h 48 % 0 mm
16:44 -11.1 °C -16.8 °C 34222.3 hPa West 11.9 km/h 11.9 km/h 49 % 0 mm
16:54 -11.2 °C -16.9 °C 34256.2 hPa SW 17.9 km/h 17.9 km/h 49 % 0 mm
16:59 -11.2 °C -16.8 °C 34256.2 hPa WSW 23.8 km/h 23.8 km/h 50 % 0 mm
17:04 -11.2 °C -16.8 °C 34256.2 hPa WSW 15 km/h 15 km/h 50 % 0 mm
17:09 -11.3 °C -16.9 °C 34256.2 hPa West 9 km/h 9 km/h 50 % 0 mm
17:14 -11.3 °C -16.9 °C 34256.2 hPa West 9 km/h 9 km/h 50 % 0 mm
17:19 -11.4 °C -17 °C 34256.2 hPa West 7.6 km/h 7.6 km/h 50 % 0 mm
17:24 -11.4 °C -17.1 °C 34256.2 hPa West 9 km/h 9 km/h 50 % 0 mm
17:34 -11.5 °C -17.1 °C 34256.2 hPa West 9 km/h 9 km/h 50 % 0 mm
17:39 -11.6 °C -17.2 °C 34293.4 hPa WSW 9 km/h 9 km/h 50 % 0 mm
17:44 -11.7 °C -17.3 °C 34293.4 hPa WSW 6 km/h 6 km/h 50 % 0 mm
17:49 -11.7 °C -17.3 °C 34293.4 hPa West 9.8 km/h 9.8 km/h 50 % 0 mm
17:59 -11.9 °C -17.3 °C 34293.4 hPa NW 3.7 km/h   51 % 0 mm
18:04 -12 °C -17.4 °C 34293.4 hPa Calm     51 % 0 mm
18:09 -12.1 °C -17.4 °C 34293.4 hPa NE 11.9 km/h 11.9 km/h 51 % 0 mm
18:19 -12.2 °C -17.6 °C 34293.4 hPa NW 3.1 km/h 3.1 km/h 51 % 0 mm
18:24 -12.2 °C -17.6 °C 34293.4 hPa NW 5.6 km/h 5.6 km/h 51 % 0 mm
18:34 -12.3 °C -17.7 °C 34293.4 hPa SW 3.7 km/h 3.7 km/h 51 % 0 mm
18:39 -12.3 °C -17.7 °C 34293.4 hPa West 9 km/h 9 km/h 51 % 0 mm
18:44 -12.4 °C -17.7 °C 34293.4 hPa WSW 3.1 km/h   51 % 0 mm
18:49 -12.4 °C -17.8 °C 34293.4 hPa WSW 7.6 km/h 7.6 km/h 51 % 0 mm
18:54 -12.4 °C -17.8 °C 34293.4 hPa West 9 km/h 9 km/h 51 % 0 mm
19:04 -12.7 °C -17.9 °C 34293.4 hPa SW 6 km/h 6 km/h 52 % 0 mm
19:09 -12.8 °C -17.9 °C 34293.4 hPa East 6.3 km/h 6.3 km/h 52 % 0 mm
19:14 -12.8 °C -17.9 °C 34293.4 hPa ENE 9 km/h 9 km/h 52 % 0 mm
19:19 -12.8 °C -17.9 °C 34293.4 hPa ENE 9 km/h 9 km/h 52 % 0 mm
19:29 -12.8 °C -18 °C 34327.3 hPa NE 6 km/h 6 km/h 52 % 0 mm
19:34 -12.8 °C -18 °C 34327.3 hPa NE 3.1 km/h 3.1 km/h 52 % 0 mm
19:39 -12.8 °C -18 °C 34327.3 hPa Calm     52 % 0 mm
19:44 -12.9 °C -17.9 °C 34327.3 hPa Calm     53 % 0 mm
19:54 -13.1 °C -18.1 °C 34327.3 hPa Calm     53 % 0 mm
19:59 -13.1 °C -18.1 °C 34327.3 hPa Calm     53 % 0 mm
20:04 -13.1 °C -18.1 °C 34327.3 hPa SSW 3.1 km/h 3.1 km/h 53 % 0 mm
20:09 -13.1 °C -18.1 °C 34327.3 hPa Calm     53 % 0 mm
20:14 -13.1 °C -18.1 °C 34327.3 hPa WSW 3.1 km/h 3.1 km/h 53 % 0 mm
20:19 -13.2 °C -18.2 °C 34327.3 hPa WSW 3.1 km/h 3.1 km/h 53 % 0 mm
20:24 -13.1 °C -18.1 °C 34327.3 hPa WSW 6 km/h 6 km/h 53 % 0 mm
20:29 -13.1 °C -18.1 °C 34327.3 hPa Calm     53 % 0 mm
20:34 -13.2 °C -18.2 °C 34327.3 hPa WSW 8 km/h 8 km/h 53 % 0 mm
20:39 -13.3 °C -18.3 °C 34327.3 hPa WSW 6 km/h 6 km/h 53 % 0 mm
20:44 -13.3 °C -18.2 °C 34327.3 hPa WSW 6 km/h 6 km/h 54 % 0 mm
20:49 -13.3 °C -18.2 °C 34327.3 hPa Calm     54 % 0 mm
20:54 -13.2 °C -18.1 °C 34327.3 hPa WSW 9 km/h 9 km/h 54 % 0 mm
20:59 -13.1 °C -17.8 °C 34327.3 hPa WSW 9 km/h 9.3 km/h 55 % 0 mm
21:09 -13 °C -17.6 °C 34327.3 hPa WNW 4.2 km/h 4.2 km/h 56 % 0 mm
21:14 -13 °C -17.6 °C 34327.3 hPa SSW 4.2 km/h 4.2 km/h 56 % 0 mm
21:19 -13 °C -17.6 °C 34327.3 hPa WSW 9 km/h 9 km/h 56 % 0 mm
21:24 -13.1 °C -17.7 °C 34327.3 hPa WSW 6.8 km/h 6.8 km/h 56 % 0 mm
21:29 -13.1 °C -17.6 °C 34327.3 hPa SW 9.3 km/h 9.3 km/h 57 % 0 mm
21:39 -13 °C -17.1 °C 34327.3 hPa WSW 15 km/h 15 km/h 60 % 0 mm
21:44 -13 °C -17.1 °C 34327.3 hPa WSW 11.9 km/h 11.9 km/h 60 % 0 mm
21:49 -12.9 °C -17.1 °C 34327.3 hPa SW 15 km/h 15 km/h 60 % 0 mm
21:54 -12.9 °C -17.1 °C 34327.3 hPa West 20.9 km/h 20.9 km/h 60 % 0 mm
21:59 -12.9 °C -17.1 °C 34327.3 hPa West 15 km/h 15 km/h 60 % 0 mm
22:19 -13 °C -17.2 °C 34361.1 hPa NNW 15 km/h 15 km/h 59 % 0 mm
22:24 -13 °C -17.2 °C 34361.1 hPa WSW 6 km/h 6.3 km/h 59 % 0 mm
22:29 -13.1 °C -17.3 °C 34361.1 hPa West 9 km/h 9 km/h 59 % 0 mm
22:44 -13.2 °C -17.4 °C 34361.1 hPa West 9 km/h 9 km/h 59 % 0 mm
22:49 -13.2 °C -17.4 °C 34361.1 hPa West 11.9 km/h 12.2 km/h 59 % 0 mm
22:54 -13.2 °C -17.4 °C 34327.3 hPa SW 9 km/h 9 km/h 59 % 0 mm
22:59 -13.3 °C -17.4 °C 34327.3 hPa WSW 9 km/h 9 km/h 59 % 0 mm
23:04 -13.3 °C -17.6 °C 34327.3 hPa West 11.1 km/h 11.1 km/h 59 % 0 mm
Meteo Sesrovires
Elogis d' Weather Underground - 4 mb

Guio original per  Jim McMurry - jmcmurry@mwt.net Adaptat per a la plantilla per  Wim van der Kuil - Leuven-Template.eu

Trobareu la nostra informacio del temps tambe a:

Weather Underground

AWEKAS